sensor_id;sensor_type;location;lat;lon;timestamp;P1;durP1;ratioP1;P2;durP2;ratioP2
25663;SDS011;13522;50.018;20.014;2023-04-01T00:01:28;5.15;;;1.45;;
25663;SDS011;13522;50.018;20.014;2023-04-01T00:04:41;4.50;;;1.60;;
25663;SDS011;13522;50.018;20.014;2023-04-01T00:07:53;2.60;;;1.40;;
25663;SDS011;13522;50.018;20.014;2023-04-01T00:11:06;2.28;;;1.08;;
25663;SDS011;13522;50.018;20.014;2023-04-01T00:14:19;3.50;;;1.40;;
25663;SDS011;13522;50.018;20.014;2023-04-01T00:17:31;4.95;;;1.38;;
25663;SDS011;13522;50.018;20.014;2023-04-01T00:20:45;1.80;;;1.20;;
25663;SDS011;13522;50.018;20.014;2023-04-01T00:23:59;5.98;;;1.40;;
25663;SDS011;13522;50.018;20.014;2023-04-01T00:27:12;3.33;;;1.48;;
25663;SDS011;13522;50.018;20.014;2023-04-01T00:30:24;4.15;;;1.70;;
25663;SDS011;13522;50.018;20.014;2023-04-01T00:33:37;3.18;;;1.48;;
25663;SDS011;13522;50.018;20.014;2023-04-01T00:36:50;1.88;;;1.23;;
25663;SDS011;13522;50.018;20.014;2023-04-01T00:40:03;5.28;;;1.38;;
25663;SDS011;13522;50.018;20.014;2023-04-01T00:43:20;4.00;;;1.60;;
25663;SDS011;13522;50.018;20.014;2023-04-01T00:46:32;4.53;;;1.40;;
25663;SDS011;13522;50.018;20.014;2023-04-01T00:49:45;3.35;;;1.65;;
25663;SDS011;13522;50.018;20.014;2023-04-01T00:53:00;4.43;;;1.23;;
25663;SDS011;13522;50.018;20.014;2023-04-01T00:56:14;3.43;;;1.30;;
25663;SDS011;13522;50.018;20.014;2023-04-01T00:59:31;1.98;;;1.18;;
25663;SDS011;13522;50.018;20.014;2023-04-01T01:02:48;2.50;;;1.23;;
25663;SDS011;13522;50.018;20.014;2023-04-01T01:06:06;3.85;;;1.78;;
25663;SDS011;13522;50.018;20.014;2023-04-01T01:09:30;3.63;;;1.55;;
25663;SDS011;13522;50.018;20.014;2023-04-01T01:12:51;3.73;;;1.63;;
25663;SDS011;13522;50.018;20.014;2023-04-01T01:16:09;3.78;;;1.60;;
25663;SDS011;13522;50.018;20.014;2023-04-01T01:19:37;4.40;;;1.63;;
25663;SDS011;13522;50.018;20.014;2023-04-01T01:27:27;5.33;;;1.65;;
25663;SDS011;13522;50.018;20.014;2023-04-01T01:30:43;4.43;;;1.60;;
25663;SDS011;13522;50.018;20.014;2023-04-01T01:34:08;4.83;;;1.63;;
25663;SDS011;13522;50.018;20.014;2023-04-01T01:37:26;3.65;;;1.50;;
25663;SDS011;13522;50.018;20.014;2023-04-01T01:40:41;3.55;;;1.60;;
25663;SDS011;13522;50.018;20.014;2023-04-01T01:43:58;2.23;;;1.30;;
25663;SDS011;13522;50.018;20.014;2023-04-01T01:47:15;2.65;;;1.35;;
25663;SDS011;13522;50.018;20.014;2023-04-01T01:50:30;2.90;;;1.60;;
25663;SDS011;13522;50.018;20.014;2023-04-01T01:53:44;2.33;;;1.18;;
25663;SDS011;13522;50.018;20.014;2023-04-01T01:56:59;4.65;;;1.60;;
25663;SDS011;13522;50.018;20.014;2023-04-01T02:00:17;3.30;;;1.30;;
25663;SDS011;13522;50.018;20.014;2023-04-01T02:03:31;3.03;;;1.43;;
25663;SDS011;13522;50.018;20.014;2023-04-01T02:06:49;3.20;;;1.95;;
25663;SDS011;13522;50.018;20.014;2023-04-01T02:10:07;3.68;;;1.60;;
25663;SDS011;13522;50.018;20.014;2023-04-01T02:13:21;5.75;;;1.70;;
25663;SDS011;13522;50.018;20.014;2023-04-01T02:16:41;6.15;;;1.63;;
25663;SDS011;13522;50.018;20.014;2023-04-01T02:19:58;2.88;;;1.55;;
25663;SDS011;13522;50.018;20.014;2023-04-01T02:23:15;4.10;;;1.70;;
25663;SDS011;13522;50.018;20.014;2023-04-01T02:26:28;4.35;;;1.60;;
25663;SDS011;13522;50.018;20.014;2023-04-01T02:29:41;7.28;;;2.30;;
25663;SDS011;13522;50.018;20.014;2023-04-01T02:32:53;3.48;;;1.70;;
25663;SDS011;13522;50.018;20.014;2023-04-01T02:36:11;4.78;;;1.95;;
25663;SDS011;13522;50.018;20.014;2023-04-01T02:39:25;3.85;;;1.73;;
25663;SDS011;13522;50.018;20.014;2023-04-01T02:42:38;2.68;;;1.53;;
25663;SDS011;13522;50.018;20.014;2023-04-01T02:45:50;3.35;;;1.60;;
25663;SDS011;13522;50.018;20.014;2023-04-01T02:49:02;6.35;;;1.80;;
25663;SDS011;13522;50.018;20.014;2023-04-01T02:52:16;4.15;;;1.90;;
25663;SDS011;13522;50.018;20.014;2023-04-01T02:55:28;4.53;;;1.60;;
25663;SDS011;13522;50.018;20.014;2023-04-01T02:58:41;5.40;;;1.65;;
25663;SDS011;13522;50.018;20.014;2023-04-01T03:01:53;6.70;;;1.95;;
25663;SDS011;13522;50.018;20.014;2023-04-01T03:05:07;2.78;;;1.55;;
25663;SDS011;13522;50.018;20.014;2023-04-01T03:08:20;3.40;;;1.58;;
25663;SDS011;13522;50.018;20.014;2023-04-01T03:11:32;3.83;;;1.70;;
25663;SDS011;13522;50.018;20.014;2023-04-01T03:14:45;5.28;;;1.48;;
25663;SDS011;13522;50.018;20.014;2023-04-01T03:17:57;6.70;;;1.93;;
25663;SDS011;13522;50.018;20.014;2023-04-01T03:21:13;4.13;;;1.53;;
25663;SDS011;13522;50.018;20.014;2023-04-01T03:24:28;4.33;;;1.68;;
25663;SDS011;13522;50.018;20.014;2023-04-01T03:27:40;3.33;;;1.35;;
25663;SDS011;13522;50.018;20.014;2023-04-01T03:30:52;5.65;;;1.78;;
25663;SDS011;13522;50.018;20.014;2023-04-01T03:34:07;3.65;;;1.98;;
25663;SDS011;13522;50.018;20.014;2023-04-01T03:37:20;3.08;;;1.45;;
25663;SDS011;13522;50.018;20.014;2023-04-01T03:40:33;4.88;;;1.90;;
25663;SDS011;13522;50.018;20.014;2023-04-01T03:43:46;4.58;;;1.90;;
25663;SDS011;13522;50.018;20.014;2023-04-01T03:46:58;5.83;;;1.70;;
25663;SDS011;13522;50.018;20.014;2023-04-01T03:50:13;4.73;;;1.68;;
25663;SDS011;13522;50.018;20.014;2023-04-01T03:53:26;3.43;;;1.68;;
25663;SDS011;13522;50.018;20.014;2023-04-01T03:56:39;3.88;;;1.60;;
25663;SDS011;13522;50.018;20.014;2023-04-01T03:59:51;3.93;;;1.60;;
25663;SDS011;13522;50.018;20.014;2023-04-01T04:03:07;4.65;;;1.80;;
25663;SDS011;13522;50.018;20.014;2023-04-01T04:06:19;4.95;;;1.98;;
25663;SDS011;13522;50.018;20.014;2023-04-01T04:09:32;4.00;;;1.63;;
25663;SDS011;13522;50.018;20.014;2023-04-01T04:12:45;7.05;;;1.98;;
25663;SDS011;13522;50.018;20.014;2023-04-01T04:15:58;4.60;;;2.48;;
25663;SDS011;13522;50.018;20.014;2023-04-01T04:19:11;5.18;;;1.88;;
25663;SDS011;13522;50.018;20.014;2023-04-01T04:22:24;3.50;;;1.50;;
25663;SDS011;13522;50.018;20.014;2023-04-01T04:25:36;4.28;;;1.68;;
25663;SDS011;13522;50.018;20.014;2023-04-01T04:28:49;6.63;;;1.75;;
25663;SDS011;13522;50.018;20.014;2023-04-01T04:32:02;5.38;;;1.85;;
25663;SDS011;13522;50.018;20.014;2023-04-01T04:35:14;7.90;;;2.13;;
25663;SDS011;13522;50.018;20.014;2023-04-01T04:38:27;3.90;;;1.93;;
25663;SDS011;13522;50.018;20.014;2023-04-01T04:41:40;4.60;;;1.80;;
25663;SDS011;13522;50.018;20.014;2023-04-01T04:44:52;5.38;;;1.95;;
25663;SDS011;13522;50.018;20.014;2023-04-01T04:48:08;6.78;;;2.43;;
25663;SDS011;13522;50.018;20.014;2023-04-01T04:51:23;4.68;;;2.10;;
25663;SDS011;13522;50.018;20.014;2023-04-01T04:54:38;4.63;;;2.00;;
25663;SDS011;13522;50.018;20.014;2023-04-01T04:57:50;5.85;;;2.10;;
25663;SDS011;13522;50.018;20.014;2023-04-01T05:01:06;3.43;;;1.68;;
25663;SDS011;13522;50.018;20.014;2023-04-01T05:04:22;5.78;;;2.13;;
25663;SDS011;13522;50.018;20.014;2023-04-01T05:07:34;4.33;;;2.10;;
25663;SDS011;13522;50.018;20.014;2023-04-01T05:10:46;5.80;;;2.20;;
25663;SDS011;13522;50.018;20.014;2023-04-01T05:13:59;5.18;;;1.98;;
25663;SDS011;13522;50.018;20.014;2023-04-01T05:17:12;6.20;;;2.05;;
25663;SDS011;13522;50.018;20.014;2023-04-01T05:20:25;9.00;;;2.10;;
25663;SDS011;13522;50.018;20.014;2023-04-01T05:23:38;6.83;;;2.25;;
25663;SDS011;13522;50.018;20.014;2023-04-01T05:26:51;8.10;;;2.33;;
25663;SDS011;13522;50.018;20.014;2023-04-01T05:30:06;3.75;;;1.83;;
25663;SDS011;13522;50.018;20.014;2023-04-01T05:33:22;5.95;;;2.28;;
25663;SDS011;13522;50.018;20.014;2023-04-01T05:36:35;6.15;;;1.80;;
25663;SDS011;13522;50.018;20.014;2023-04-01T05:39:48;4.80;;;1.70;;
25663;SDS011;13522;50.018;20.014;2023-04-01T05:43:00;6.05;;;1.73;;
25663;SDS011;13522;50.018;20.014;2023-04-01T05:46:13;6.00;;;1.43;;
25663;SDS011;13522;50.018;20.014;2023-04-01T05:49:27;4.20;;;1.60;;
25663;SDS011;13522;50.018;20.014;2023-04-01T05:52:41;5.50;;;1.90;;
25663;SDS011;13522;50.018;20.014;2023-04-01T05:55:54;5.60;;;1.95;;
25663;SDS011;13522;50.018;20.014;2023-04-01T05:59:10;7.83;;;2.13;;
25663;SDS011;13522;50.018;20.014;2023-04-01T06:02:23;4.10;;;1.60;;
25663;SDS011;13522;50.018;20.014;2023-04-01T06:05:39;4.68;;;2.10;;
25663;SDS011;13522;50.018;20.014;2023-04-01T06:08:53;5.28;;;1.93;;
25663;SDS011;13522;50.018;20.014;2023-04-01T06:12:19;7.48;;;2.13;;
25663;SDS011;13522;50.018;20.014;2023-04-01T06:15:49;4.63;;;1.90;;
25663;SDS011;13522;50.018;20.014;2023-04-01T06:19:15;5.18;;;1.60;;
25663;SDS011;13522;50.018;20.014;2023-04-01T06:26:23;6.20;;;1.95;;
25663;SDS011;13522;50.018;20.014;2023-04-01T06:29:52;4.85;;;1.60;;
25663;SDS011;13522;50.018;20.014;2023-04-01T06:33:19;5.50;;;2.00;;
25663;SDS011;13522;50.018;20.014;2023-04-01T06:36:52;7.40;;;2.05;;
25663;SDS011;13522;50.018;20.014;2023-04-01T06:40:21;6.35;;;2.10;;
25663;SDS011;13522;50.018;20.014;2023-04-01T06:43:57;3.55;;;1.70;;
25663;SDS011;13522;50.018;20.014;2023-04-01T06:47:25;5.87;;;2.60;;
25663;SDS011;13522;50.018;20.014;2023-04-01T06:50:51;5.75;;;2.13;;
25663;SDS011;13522;50.018;20.014;2023-04-01T06:54:26;4.50;;;1.90;;
25663;SDS011;13522;50.018;20.014;2023-04-01T06:57:47;4.25;;;1.63;;
25663;SDS011;13522;50.018;20.014;2023-04-01T07:01:04;4.15;;;1.85;;
25663;SDS011;13522;50.018;20.014;2023-04-01T07:04:22;7.33;;;2.20;;
25663;SDS011;13522;50.018;20.014;2023-04-01T07:07:41;5.35;;;2.18;;
25663;SDS011;13522;50.018;20.014;2023-04-01T07:10:58;9.30;;;2.20;;
25663;SDS011;13522;50.018;20.014;2023-04-01T07:14:32;5.90;;;2.40;;
25663;SDS011;13522;50.018;20.014;2023-04-01T07:17:50;5.63;;;2.33;;
25663;SDS011;13522;50.018;20.014;2023-04-01T07:21:07;5.80;;;2.43;;
25663;SDS011;13522;50.018;20.014;2023-04-01T07:24:32;6.35;;;2.50;;
25663;SDS011;13522;50.018;20.014;2023-04-01T07:27:48;5.15;;;2.18;;
25663;SDS011;13522;50.018;20.014;2023-04-01T07:31:06;7.50;;;3.15;;
25663;SDS011;13522;50.018;20.014;2023-04-01T07:34:28;5.93;;;3.00;;
25663;SDS011;13522;50.018;20.014;2023-04-01T07:37:47;7.65;;;2.78;;
25663;SDS011;13522;50.018;20.014;2023-04-01T07:41:16;5.55;;;2.10;;
25663;SDS011;13522;50.018;20.014;2023-04-01T07:44:34;8.50;;;2.20;;
25663;SDS011;13522;50.018;20.014;2023-04-01T07:47:54;7.30;;;2.68;;
25663;SDS011;13522;50.018;20.014;2023-04-01T07:51:18;5.38;;;1.68;;
25663;SDS011;13522;50.018;20.014;2023-04-01T07:54:37;7.45;;;2.00;;
25663;SDS011;13522;50.018;20.014;2023-04-01T07:57:57;7.63;;;3.50;;
25663;SDS011;13522;50.018;20.014;2023-04-01T08:01:17;4.35;;;1.80;;
25663;SDS011;13522;50.018;20.014;2023-04-01T08:04:40;5.65;;;1.80;;
25663;SDS011;13522;50.018;20.014;2023-04-01T08:08:08;5.28;;;1.78;;
25663;SDS011;13522;50.018;20.014;2023-04-01T08:11:48;3.83;;;1.53;;
25663;SDS011;13522;50.018;20.014;2023-04-01T08:15:27;6.40;;;2.38;;
25663;SDS011;13522;50.018;20.014;2023-04-01T08:18:49;4.30;;;1.78;;
25663;SDS011;13522;50.018;20.014;2023-04-01T08:22:07;6.60;;;1.90;;
25663;SDS011;13522;50.018;20.014;2023-04-01T08:25:25;4.75;;;1.75;;
25663;SDS011;13522;50.018;20.014;2023-04-01T08:28:41;5.25;;;1.68;;
25663;SDS011;13522;50.018;20.014;2023-04-01T08:32:00;4.03;;;1.80;;
25663;SDS011;13522;50.018;20.014;2023-04-01T08:35:20;3.63;;;1.70;;
25663;SDS011;13522;50.018;20.014;2023-04-01T08:38:42;3.88;;;1.50;;
25663;SDS011;13522;50.018;20.014;2023-04-01T08:45:58;4.30;;;1.60;;
25663;SDS011;13522;50.018;20.014;2023-04-01T08:49:40;5.45;;;2.20;;
25663;SDS011;13522;50.018;20.014;2023-04-01T08:53:13;3.80;;;1.88;;
25663;SDS011;13522;50.018;20.014;2023-04-01T08:56:33;3.08;;;1.58;;
25663;SDS011;13522;50.018;20.014;2023-04-01T08:59:52;2.63;;;1.43;;
25663;SDS011;13522;50.018;20.014;2023-04-01T09:03:46;3.63;;;2.00;;
25663;SDS011;13522;50.018;20.014;2023-04-01T09:07:18;4.93;;;1.88;;
25663;SDS011;13522;50.018;20.014;2023-04-01T09:10:48;3.30;;;1.35;;
25663;SDS011;13522;50.018;20.014;2023-04-01T09:14:36;2.90;;;1.53;;
25663;SDS011;13522;50.018;20.014;2023-04-01T09:25:44;3.55;;;1.83;;
25663;SDS011;13522;50.018;20.014;2023-04-01T09:29:10;4.95;;;1.93;;
25663;SDS011;13522;50.018;20.014;2023-04-01T09:32:40;3.50;;;1.78;;
25663;SDS011;13522;50.018;20.014;2023-04-01T09:36:12;8.25;;;3.40;;
25663;SDS011;13522;50.018;20.014;2023-04-01T09:39:37;10.00;;;5.53;;
25663;SDS011;13522;50.018;20.014;2023-04-01T09:43:12;6.00;;;2.10;;
25663;SDS011;13522;50.018;20.014;2023-04-01T09:46:41;2.23;;;1.50;;
25663;SDS011;13522;50.018;20.014;2023-04-01T09:50:19;3.83;;;1.70;;
25663;SDS011;13522;50.018;20.014;2023-04-01T09:53:48;5.58;;;1.50;;
25663;SDS011;13522;50.018;20.014;2023-04-01T09:57:27;3.53;;;1.78;;
25663;SDS011;13522;50.018;20.014;2023-04-01T10:01:23;6.05;;;2.10;;
25663;SDS011;13522;50.018;20.014;2023-04-01T10:09:01;6.35;;;2.60;;
25663;SDS011;13522;50.018;20.014;2023-04-01T10:21:00;5.78;;;2.03;;
25663;SDS011;13522;50.018;20.014;2023-04-01T10:24:44;7.25;;;2.15;;
25663;SDS011;13522;50.018;20.014;2023-04-01T10:28:40;7.38;;;2.28;;
25663;SDS011;13522;50.018;20.014;2023-04-01T10:40:19;6.53;;;2.78;;
25663;SDS011;13522;50.018;20.014;2023-04-01T10:48:41;5.30;;;2.65;;
25663;SDS011;13522;50.018;20.014;2023-04-01T10:52:40;4.65;;;2.08;;
25663;SDS011;13522;50.018;20.014;2023-04-01T10:56:40;7.28;;;2.50;;
25663;SDS011;13522;50.018;20.014;2023-04-01T11:08:41;3.18;;;1.80;;
25663;SDS011;13522;50.018;20.014;2023-04-01T11:20:42;6.45;;;2.13;;
25663;SDS011;13522;50.018;20.014;2023-04-01T11:32:21;3.40;;;2.15;;
25663;SDS011;13522;50.018;20.014;2023-04-01T11:36:08;4.85;;;2.60;;
25663;SDS011;13522;50.018;20.014;2023-04-01T11:39:42;3.93;;;2.30;;
25663;SDS011;13522;50.018;20.014;2023-04-01T11:43:09;4.15;;;2.35;;
25663;SDS011;13522;50.018;20.014;2023-04-01T11:46:49;4.08;;;2.48;;
25663;SDS011;13522;50.018;20.014;2023-04-01T11:50:18;3.88;;;1.75;;
25663;SDS011;13522;50.018;20.014;2023-04-01T11:53:41;2.88;;;1.78;;
25663;SDS011;13522;50.018;20.014;2023-04-01T11:57:02;5.20;;;1.98;;
25663;SDS011;13522;50.018;20.014;2023-04-01T12:08:12;4.00;;;2.40;;
25663;SDS011;13522;50.018;20.014;2023-04-01T12:11:34;4.43;;;2.40;;
25663;SDS011;13522;50.018;20.014;2023-04-01T12:14:59;3.83;;;2.20;;
25663;SDS011;13522;50.018;20.014;2023-04-01T12:18:20;3.10;;;2.23;;
25663;SDS011;13522;50.018;20.014;2023-04-01T12:21:38;4.83;;;2.00;;
25663;SDS011;13522;50.018;20.014;2023-04-01T12:24:56;3.13;;;1.93;;
25663;SDS011;13522;50.018;20.014;2023-04-01T12:28:21;2.25;;;1.50;;
25663;SDS011;13522;50.018;20.014;2023-04-01T12:31:45;3.33;;;1.63;;
25663;SDS011;13522;50.018;20.014;2023-04-01T12:35:12;3.65;;;2.03;;
25663;SDS011;13522;50.018;20.014;2023-04-01T12:38:35;2.95;;;1.68;;
25663;SDS011;13522;50.018;20.014;2023-04-01T12:41:54;9.03;;;4.25;;
25663;SDS011;13522;50.018;20.014;2023-04-01T12:45:17;5.20;;;2.18;;
25663;SDS011;13522;50.018;20.014;2023-04-01T12:52:27;6.30;;;2.10;;
25663;SDS011;13522;50.018;20.014;2023-04-01T12:55:51;3.33;;;2.10;;
25663;SDS011;13522;50.018;20.014;2023-04-01T12:59:14;3.50;;;2.20;;
25663;SDS011;13522;50.018;20.014;2023-04-01T13:02:53;2.10;;;1.90;;
25663;SDS011;13522;50.018;20.014;2023-04-01T13:06:20;3.48;;;1.50;;
25663;SDS011;13522;50.018;20.014;2023-04-01T13:10:09;2.05;;;1.50;;
25663;SDS011;13522;50.018;20.014;2023-04-01T13:13:45;2.88;;;1.50;;
25663;SDS011;13522;50.018;20.014;2023-04-01T13:17:35;3.08;;;1.70;;
25663;SDS011;13522;50.018;20.014;2023-04-01T13:20:54;2.65;;;1.93;;
25663;SDS011;13522;50.018;20.014;2023-04-01T13:24:18;4.43;;;2.40;;
25663;SDS011;13522;50.018;20.014;2023-04-01T13:27:44;4.63;;;2.65;;
25663;SDS011;13522;50.018;20.014;2023-04-01T13:31:00;2.40;;;1.73;;
25663;SDS011;13522;50.018;20.014;2023-04-01T13:34:20;2.88;;;1.80;;
25663;SDS011;13522;50.018;20.014;2023-04-01T13:37:45;4.15;;;1.80;;
25663;SDS011;13522;50.018;20.014;2023-04-01T13:41:05;3.15;;;2.00;;
25663;SDS011;13522;50.018;20.014;2023-04-01T13:44:22;2.90;;;1.80;;
25663;SDS011;13522;50.018;20.014;2023-04-01T13:47:55;3.40;;;1.75;;
25663;SDS011;13522;50.018;20.014;2023-04-01T13:51:49;3.60;;;1.73;;
25663;SDS011;13522;50.018;20.014;2023-04-01T13:55:24;1.75;;;1.20;;
25663;SDS011;13522;50.018;20.014;2023-04-01T13:59:05;2.30;;;1.35;;
25663;SDS011;13522;50.018;20.014;2023-04-01T14:02:54;2.20;;;1.40;;
25663;SDS011;13522;50.018;20.014;2023-04-01T14:06:21;1.98;;;1.15;;
25663;SDS011;13522;50.018;20.014;2023-04-01T14:09:59;3.03;;;0.95;;
25663;SDS011;13522;50.018;20.014;2023-04-01T14:13:31;2.23;;;1.10;;
25663;SDS011;13522;50.018;20.014;2023-04-01T14:16:57;3.10;;;1.98;;
25663;SDS011;13522;50.018;20.014;2023-04-01T14:20:42;2.80;;;1.33;;
25663;SDS011;13522;50.018;20.014;2023-04-01T14:24:13;4.27;;;1.23;;
25663;SDS011;13522;50.018;20.014;2023-04-01T14:31:21;6.65;;;2.48;;
25663;SDS011;13522;50.018;20.014;2023-04-01T14:34:58;3.18;;;1.75;;
25663;SDS011;13522;50.018;20.014;2023-04-01T14:38:27;4.73;;;2.18;;
25663;SDS011;13522;50.018;20.014;2023-04-01T14:41:57;5.10;;;2.08;;
25663;SDS011;13522;50.018;20.014;2023-04-01T14:49:13;4.15;;;2.38;;
25663;SDS011;13522;50.018;20.014;2023-04-01T14:52:30;6.73;;;2.30;;
25663;SDS011;13522;50.018;20.014;2023-04-01T14:55:49;5.13;;;2.70;;
25663;SDS011;13522;50.018;20.014;2023-04-01T14:59:07;6.58;;;2.63;;
25663;SDS011;13522;50.018;20.014;2023-04-01T15:02:35;5.00;;;2.83;;
25663;SDS011;13522;50.018;20.014;2023-04-01T15:06:14;4.25;;;2.48;;
25663;SDS011;13522;50.018;20.014;2023-04-01T15:09:58;5.18;;;2.90;;
25663;SDS011;13522;50.018;20.014;2023-04-01T15:13:22;11.30;;;4.93;;
25663;SDS011;13522;50.018;20.014;2023-04-01T15:16:53;5.35;;;3.05;;
25663;SDS011;13522;50.018;20.014;2023-04-01T15:24:10;5.13;;;3.50;;
25663;SDS011;13522;50.018;20.014;2023-04-01T15:27:31;8.65;;;4.10;;
25663;SDS011;13522;50.018;20.014;2023-04-01T15:30:51;6.90;;;3.80;;
25663;SDS011;13522;50.018;20.014;2023-04-01T15:34:15;9.85;;;4.00;;
25663;SDS011;13522;50.018;20.014;2023-04-01T15:37:36;10.30;;;3.98;;
25663;SDS011;13522;50.018;20.014;2023-04-01T15:40:54;6.85;;;3.88;;
25663;SDS011;13522;50.018;20.014;2023-04-01T15:44:33;7.85;;;3.80;;
25663;SDS011;13522;50.018;20.014;2023-04-01T15:47:58;6.80;;;3.50;;
25663;SDS011;13522;50.018;20.014;2023-04-01T15:51:29;4.98;;;3.40;;
25663;SDS011;13522;50.018;20.014;2023-04-01T15:58:38;4.65;;;2.55;;
25663;SDS011;13522;50.018;20.014;2023-04-01T16:02:01;4.58;;;2.93;;
25663;SDS011;13522;50.018;20.014;2023-04-01T16:05:24;6.83;;;2.53;;
25663;SDS011;13522;50.018;20.014;2023-04-01T16:09:01;4.85;;;2.88;;
25663;SDS011;13522;50.018;20.014;2023-04-01T16:12:24;13.83;;;3.25;;
25663;SDS011;13522;50.018;20.014;2023-04-01T16:15:50;5.60;;;3.23;;
25663;SDS011;13522;50.018;20.014;2023-04-01T16:19:12;6.25;;;3.23;;
25663;SDS011;13522;50.018;20.014;2023-04-01T16:22:54;6.25;;;3.53;;
25663;SDS011;13522;50.018;20.014;2023-04-01T16:26:15;7.88;;;3.95;;
25663;SDS011;13522;50.018;20.014;2023-04-01T16:29:33;8.93;;;5.18;;
25663;SDS011;13522;50.018;20.014;2023-04-01T16:32:53;10.30;;;4.95;;
25663;SDS011;13522;50.018;20.014;2023-04-01T16:36:11;8.48;;;5.58;;
25663;SDS011;13522;50.018;20.014;2023-04-01T16:39:33;6.10;;;3.63;;
25663;SDS011;13522;50.018;20.014;2023-04-01T16:42:51;7.53;;;4.33;;
25663;SDS011;13522;50.018;20.014;2023-04-01T16:49:47;8.58;;;5.08;;
25663;SDS011;13522;50.018;20.014;2023-04-01T16:53:08;8.70;;;4.80;;
25663;SDS011;13522;50.018;20.014;2023-04-01T16:56:27;10.03;;;4.85;;
25663;SDS011;13522;50.018;20.014;2023-04-01T16:59:48;7.55;;;5.20;;
25663;SDS011;13522;50.018;20.014;2023-04-01T17:03:11;8.73;;;5.38;;
25663;SDS011;13522;50.018;20.014;2023-04-01T17:06:31;9.20;;;5.30;;
25663;SDS011;13522;50.018;20.014;2023-04-01T17:09:53;10.43;;;5.40;;
25663;SDS011;13522;50.018;20.014;2023-04-01T17:13:38;8.63;;;4.70;;
25663;SDS011;13522;50.018;20.014;2023-04-01T17:17:05;8.45;;;4.48;;
25663;SDS011;13522;50.018;20.014;2023-04-01T17:23:52;5.83;;;3.03;;
25663;SDS011;13522;50.018;20.014;2023-04-01T17:27:15;4.75;;;2.95;;
25663;SDS011;13522;50.018;20.014;2023-04-01T17:30:39;6.07;;;3.80;;
25663;SDS011;13522;50.018;20.014;2023-04-01T17:33:59;11.58;;;4.30;;
25663;SDS011;13522;50.018;20.014;2023-04-01T17:37:39;7.90;;;4.20;;
25663;SDS011;13522;50.018;20.014;2023-04-01T17:41:01;8.65;;;5.38;;
25663;SDS011;13522;50.018;20.014;2023-04-01T17:44:21;6.25;;;4.13;;
25663;SDS011;13522;50.018;20.014;2023-04-01T17:47:43;5.73;;;3.83;;
25663;SDS011;13522;50.018;20.014;2023-04-01T17:54:41;7.00;;;4.13;;
25663;SDS011;13522;50.018;20.014;2023-04-01T17:57:59;10.63;;;4.70;;
25663;SDS011;13522;50.018;20.014;2023-04-01T18:01:18;6.60;;;4.08;;
25663;SDS011;13522;50.018;20.014;2023-04-01T18:08:53;8.38;;;4.93;;
25663;SDS011;13522;50.018;20.014;2023-04-01T18:12:15;8.05;;;4.28;;
25663;SDS011;13522;50.018;20.014;2023-04-01T18:15:35;8.00;;;5.45;;
25663;SDS011;13522;50.018;20.014;2023-04-01T18:18:53;8.90;;;5.65;;
25663;SDS011;13522;50.018;20.014;2023-04-01T18:22:17;8.28;;;5.43;;
25663;SDS011;13522;50.018;20.014;2023-04-01T18:25:32;9.78;;;5.43;;
25663;SDS011;13522;50.018;20.014;2023-04-01T18:28:47;9.05;;;6.25;;
25663;SDS011;13522;50.018;20.014;2023-04-01T18:35:47;11.33;;;5.83;;
25663;SDS011;13522;50.018;20.014;2023-04-01T18:39:04;9.78;;;6.43;;
25663;SDS011;13522;50.018;20.014;2023-04-01T18:42:28;10.35;;;6.73;;
25663;SDS011;13522;50.018;20.014;2023-04-01T18:45:47;12.15;;;7.18;;
25663;SDS011;13522;50.018;20.014;2023-04-01T18:49:13;14.15;;;8.23;;
25663;SDS011;13522;50.018;20.014;2023-04-01T18:52:33;13.68;;;8.55;;
25663;SDS011;13522;50.018;20.014;2023-04-01T18:55:49;13.30;;;8.98;;
25663;SDS011;13522;50.018;20.014;2023-04-01T18:59:06;13.63;;;8.70;;
25663;SDS011;13522;50.018;20.014;2023-04-01T19:02:27;14.93;;;8.33;;
25663;SDS011;13522;50.018;20.014;2023-04-01T19:05:45;14.25;;;9.83;;
25663;SDS011;13522;50.018;20.014;2023-04-01T19:09:08;16.80;;;9.30;;
25663;SDS011;13522;50.018;20.014;2023-04-01T19:12:32;15.63;;;8.60;;
25663;SDS011;13522;50.018;20.014;2023-04-01T19:15:50;14.98;;;8.95;;
25663;SDS011;13522;50.018;20.014;2023-04-01T19:19:12;14.40;;;9.13;;
25663;SDS011;13522;50.018;20.014;2023-04-01T19:22:48;13.98;;;8.83;;
25663;SDS011;13522;50.018;20.014;2023-04-01T19:26:13;14.10;;;9.50;;
25663;SDS011;13522;50.018;20.014;2023-04-01T19:29:34;12.88;;;8.78;;
25663;SDS011;13522;50.018;20.014;2023-04-01T19:32:57;13.75;;;9.03;;
25663;SDS011;13522;50.018;20.014;2023-04-01T19:36:19;13.05;;;8.78;;
25663;SDS011;13522;50.018;20.014;2023-04-01T19:39:39;13.53;;;9.13;;
25663;SDS011;13522;50.018;20.014;2023-04-01T19:43:01;14.35;;;9.80;;
25663;SDS011;13522;50.018;20.014;2023-04-01T19:46:23;14.70;;;9.73;;
25663;SDS011;13522;50.018;20.014;2023-04-01T19:49:44;14.28;;;9.00;;
25663;SDS011;13522;50.018;20.014;2023-04-01T19:53:11;14.78;;;9.45;;
25663;SDS011;13522;50.018;20.014;2023-04-01T19:59:31;15.30;;;10.40;;
25663;SDS011;13522;50.018;20.014;2023-04-01T20:02:55;15.08;;;10.70;;
25663;SDS011;13522;50.018;20.014;2023-04-01T20:06:23;18.23;;;11.58;;
25663;SDS011;13522;50.018;20.014;2023-04-01T20:09:46;18.20;;;11.53;;
25663;SDS011;13522;50.018;20.014;2023-04-01T20:13:10;13.85;;;10.30;;
25663;SDS011;13522;50.018;20.014;2023-04-01T20:16:43;17.08;;;11.45;;
25663;SDS011;13522;50.018;20.014;2023-04-01T20:20:13;18.60;;;11.13;;
25663;SDS011;13522;50.018;20.014;2023-04-01T20:23:41;19.05;;;11.68;;
25663;SDS011;13522;50.018;20.014;2023-04-01T20:27:00;17.63;;;11.78;;
25663;SDS011;13522;50.018;20.014;2023-04-01T20:34:29;18.55;;;12.70;;
25663;SDS011;13522;50.018;20.014;2023-04-01T20:37:57;19.93;;;13.68;;
25663;SDS011;13522;50.018;20.014;2023-04-01T20:41:30;19.78;;;13.75;;
25663;SDS011;13522;50.018;20.014;2023-04-01T20:44:50;19.45;;;13.50;;
25663;SDS011;13522;50.018;20.014;2023-04-01T20:48:20;20.50;;;14.13;;
25663;SDS011;13522;50.018;20.014;2023-04-01T20:51:59;23.35;;;15.15;;
25663;SDS011;13522;50.018;20.014;2023-04-01T20:59:37;21.23;;;14.88;;
25663;SDS011;13522;50.018;20.014;2023-04-01T21:03:13;24.00;;;17.05;;
25663;SDS011;13522;50.018;20.014;2023-04-01T21:06:43;22.53;;;15.20;;
25663;SDS011;13522;50.018;20.014;2023-04-01T21:13:49;23.75;;;15.53;;
25663;SDS011;13522;50.018;20.014;2023-04-01T21:17:15;22.28;;;14.88;;
25663;SDS011;13522;50.018;20.014;2023-04-01T21:20:38;25.48;;;16.95;;
25663;SDS011;13522;50.018;20.014;2023-04-01T21:24:41;23.53;;;17.30;;
25663;SDS011;13522;50.018;20.014;2023-04-01T21:28:20;25.53;;;17.08;;
25663;SDS011;13522;50.018;20.014;2023-04-01T21:31:48;24.20;;;16.80;;
25663;SDS011;13522;50.018;20.014;2023-04-01T21:35:30;22.20;;;16.00;;
25663;SDS011;13522;50.018;20.014;2023-04-01T21:38:51;23.13;;;16.68;;
25663;SDS011;13522;50.018;20.014;2023-04-01T21:42:21;25.10;;;17.25;;
25663;SDS011;13522;50.018;20.014;2023-04-01T21:45:53;26.20;;;17.45;;
25663;SDS011;13522;50.018;20.014;2023-04-01T21:53:35;22.48;;;15.20;;
25663;SDS011;13522;50.018;20.014;2023-04-01T21:57:21;24.25;;;15.73;;
25663;SDS011;13522;50.018;20.014;2023-04-01T22:00:54;21.43;;;15.20;;
25663;SDS011;13522;50.018;20.014;2023-04-01T22:04:26;23.80;;;16.33;;
25663;SDS011;13522;50.018;20.014;2023-04-01T22:07:54;22.78;;;16.20;;
25663;SDS011;13522;50.018;20.014;2023-04-01T22:11:14;19.38;;;13.88;;
25663;SDS011;13522;50.018;20.014;2023-04-01T22:14:38;20.45;;;14.28;;